createdAt,value
2023-05-18T00:00:23.427Z,87.00
2023-05-18T00:02:51.694Z,87.30
2023-05-18T00:05:20.013Z,87.30
2023-05-18T00:07:48.120Z,87.70
2023-05-18T00:10:16.331Z,87.90
2023-05-18T00:12:44.478Z,88.10
2023-05-18T00:15:14.052Z,88.50
2023-05-18T00:17:42.540Z,88.40
2023-05-18T00:20:11.660Z,88.70
2023-05-18T00:22:42.676Z,88.30
2023-05-18T00:25:11.052Z,88.50
2023-05-18T00:27:39.200Z,87.90
2023-05-18T00:30:08.812Z,88.10
2023-05-18T00:32:38.901Z,88.70
2023-05-18T00:35:07.852Z,88.80
2023-05-18T00:37:36.124Z,88.60
2023-05-18T00:40:06.591Z,88.40
2023-05-18T00:42:34.875Z,88.70
2023-05-18T00:45:03.083Z,88.90
2023-05-18T00:47:31.797Z,88.90
2023-05-18T00:50:01.483Z,88.80
2023-05-18T00:52:30.251Z,89.00
2023-05-18T00:54:59.795Z,89.10
2023-05-18T00:57:28.620Z,88.90
2023-05-18T00:59:57.863Z,88.70
2023-05-18T01:02:30.179Z,88.80
2023-05-18T01:05:00.624Z,88.30
2023-05-18T01:07:33.459Z,88.50
2023-05-18T01:10:01.650Z,88.40
2023-05-18T01:12:36.933Z,88.40
2023-05-18T01:15:10.934Z,88.20
2023-05-18T01:17:51.485Z,88.40
2023-05-18T01:20:30.355Z,88.40
2023-05-18T01:23:29.584Z,88.50
2023-05-18T01:26:15.316Z,88.50
2023-05-18T01:28:46.891Z,88.40
2023-05-18T01:31:16.296Z,88.30
2023-05-18T01:33:45.177Z,88.20
2023-05-18T01:36:13.390Z,88.00
2023-05-18T01:38:43.870Z,87.70
2023-05-18T01:41:22.463Z,87.80
2023-05-18T01:43:56.931Z,87.80
2023-05-18T01:46:44.378Z,87.30
2023-05-18T01:49:21.678Z,87.30
2023-05-18T01:51:51.520Z,87.50
2023-05-18T01:54:22.174Z,87.20
2023-05-18T01:56:55.969Z,87.50
2023-05-18T01:59:24.979Z,87.70
2023-05-18T02:01:59.331Z,87.80
2023-05-18T02:04:28.482Z,87.70
2023-05-18T02:06:57.062Z,87.30
2023-05-18T02:09:25.409Z,87.10
2023-05-18T02:11:54.924Z,87.50
2023-05-18T02:14:23.092Z,87.60
2023-05-18T02:16:53.142Z,87.30
2023-05-18T02:19:22.627Z,87.20
2023-05-18T02:21:50.832Z,87.50
2023-05-18T02:24:19.033Z,87.30
2023-05-18T02:26:47.186Z,88.00
2023-05-18T02:29:16.629Z,88.00
2023-05-18T02:31:45.134Z,88.00
2023-05-18T02:34:15.357Z,87.90
2023-05-18T02:36:43.619Z,88.10
2023-05-18T02:39:11.742Z,87.70
2023-05-18T02:41:40.009Z,87.70
2023-05-18T02:44:08.231Z,88.40
2023-05-18T02:46:37.876Z,88.20
2023-05-18T02:49:07.804Z,88.10
2023-05-18T02:51:35.990Z,88.10
2023-05-18T02:54:04.411Z,88.40
2023-05-18T02:56:34.790Z,88.40
2023-05-18T02:59:21.002Z,88.00
2023-05-18T03:01:50.765Z,88.40
2023-05-18T03:04:20.002Z,88.20
2023-05-18T03:06:52.952Z,87.90
2023-05-18T03:09:22.189Z,87.90
2023-05-18T03:11:51.722Z,88.10
2023-05-18T03:14:19.942Z,88.10
2023-05-18T03:16:53.754Z,88.10
2023-05-18T03:19:24.447Z,88.50
2023-05-18T03:21:52.668Z,88.00
2023-05-18T03:24:20.962Z,88.40
2023-05-18T03:26:54.163Z,88.40
2023-05-18T03:29:23.116Z,88.20
2023-05-18T03:31:53.960Z,88.30
2023-05-18T03:34:22.312Z,88.40
2023-05-18T03:36:52.451Z,88.10
2023-05-18T03:39:21.052Z,88.50
2023-05-18T03:41:49.717Z,88.20
2023-05-18T03:44:17.971Z,88.40
2023-05-18T03:46:46.321Z,88.30
2023-05-18T03:49:16.051Z,88.20
2023-05-18T03:51:44.637Z,88.60
2023-05-18T03:54:12.942Z,88.60
2023-05-18T03:56:41.118Z,88.50
2023-05-18T03:59:09.328Z,88.60
2023-05-18T04:01:38.148Z,88.30
2023-05-18T04:04:07.330Z,88.30
2023-05-18T04:06:37.442Z,88.70
2023-05-18T04:09:05.851Z,88.50
2023-05-18T04:11:34.032Z,88.40
2023-05-18T04:14:03.005Z,88.50
2023-05-18T04:16:31.534Z,88.70
2023-05-18T04:19:00.489Z,88.50
2023-05-18T04:21:33.853Z,88.60
2023-05-18T04:24:04.869Z,88.50
2023-05-18T04:26:33.467Z,88.60
2023-05-18T04:29:01.673Z,88.50
2023-05-18T04:31:29.940Z,88.80
2023-05-18T04:34:00.409Z,88.70
2023-05-18T04:36:30.952Z,88.60
2023-05-18T04:38:59.803Z,88.60
2023-05-18T04:41:30.032Z,88.40
2023-05-18T04:43:58.253Z,88.60
2023-05-18T04:46:27.120Z,89.00
2023-05-18T04:48:58.021Z,88.60
2023-05-18T04:51:26.312Z,88.70
2023-05-18T04:53:55.717Z,88.90
2023-05-18T04:56:23.926Z,88.60
2023-05-18T04:58:53.409Z,89.00
2023-05-18T05:01:21.597Z,88.70
2023-05-18T05:03:50.131Z,88.80
2023-05-18T05:06:18.364Z,89.60
2023-05-18T05:08:47.971Z,89.10
2023-05-18T05:11:16.110Z,89.30
2023-05-18T05:13:44.331Z,89.60
2023-05-18T05:16:13.927Z,89.60
2023-05-18T05:18:42.165Z,89.60
2023-05-18T05:21:10.856Z,89.50
2023-05-18T05:23:39.024Z,89.50
2023-05-18T05:26:07.287Z,89.60
2023-05-18T05:28:35.942Z,90.00
2023-05-18T05:31:04.209Z,89.50
2023-05-18T05:33:34.698Z,89.80
2023-05-18T05:36:04.912Z,89.50
2023-05-18T05:38:33.457Z,89.70
2023-05-18T05:41:01.823Z,89.30
2023-05-18T05:43:30.013Z,89.60
2023-05-18T05:45:58.170Z,89.60
2023-05-18T05:48:26.791Z,89.90
2023-05-18T05:50:56.738Z,89.80
2023-05-18T05:53:24.979Z,90.00
2023-05-18T05:55:54.251Z,89.90
2023-05-18T05:58:22.455Z,89.80
2023-05-18T06:00:55.138Z,89.90
2023-05-18T06:03:23.557Z,89.80
2023-05-18T06:05:51.806Z,90.00
2023-05-18T06:08:24.325Z,90.10
2023-05-18T06:10:53.099Z,90.00
2023-05-18T06:13:21.309Z,89.80
2023-05-18T06:15:52.082Z,89.90
2023-05-18T06:18:20.375Z,90.00
2023-05-18T06:20:50.327Z,90.10
2023-05-18T06:23:22.661Z,90.10
2023-05-18T06:26:12.480Z,90.00
2023-05-18T06:28:59.251Z,90.20
2023-05-18T06:31:47.733Z,90.10
2023-05-18T06:34:21.787Z,90.20
2023-05-18T06:36:50.007Z,90.00
2023-05-18T06:39:18.344Z,90.10
2023-05-18T06:41:48.011Z,90.10
2023-05-18T06:44:23.912Z,89.90
2023-05-18T06:47:11.099Z,90.20
2023-05-18T06:49:39.826Z,89.70
2023-05-18T06:52:09.911Z,90.10
2023-05-18T06:54:38.841Z,90.10
2023-05-18T06:57:09.005Z,90.00
2023-05-18T06:59:37.318Z,89.80
2023-05-18T07:02:07.656Z,89.10
2023-05-18T07:04:35.979Z,89.50
2023-05-18T07:07:04.264Z,89.10
2023-05-18T07:09:32.423Z,89.20
2023-05-18T07:12:00.632Z,88.90
2023-05-18T07:14:30.178Z,88.80
2023-05-18T07:16:58.271Z,88.60
2023-05-18T07:19:26.550Z,88.00
2023-05-18T07:21:54.676Z,88.60
2023-05-18T07:24:22.841Z,88.70
2023-05-18T07:26:51.030Z,88.40
2023-05-18T07:29:19.184Z,88.50
2023-05-18T07:31:48.933Z,88.40
2023-05-18T07:34:17.133Z,88.00
2023-05-18T07:36:45.609Z,87.80
2023-05-18T07:39:19.451Z,87.50
2023-05-18T07:41:48.465Z,87.80
2023-05-18T07:44:17.132Z,88.00
2023-05-18T07:46:45.408Z,87.90
2023-05-18T07:49:14.922Z,87.70
2023-05-18T07:51:43.376Z,88.50
2023-05-18T07:54:11.558Z,87.90
2023-05-18T07:56:40.757Z,87.70
2023-05-18T07:59:09.389Z,88.20
2023-05-18T08:01:38.464Z,88.40
2023-05-18T08:04:06.894Z,88.60
2023-05-18T08:06:36.726Z,88.70
2023-05-18T08:09:05.051Z,88.50
2023-05-18T08:11:33.233Z,88.30
2023-05-18T08:14:01.384Z,88.10
2023-05-18T08:16:29.544Z,88.30
2023-05-18T08:18:57.721Z,88.10
2023-05-18T08:21:26.200Z,88.40
2023-05-18T08:23:55.746Z,88.80
2023-05-18T08:26:24.500Z,88.40
2023-05-18T08:28:52.955Z,88.90
2023-05-18T08:31:21.331Z,89.40
2023-05-18T08:33:49.891Z,88.70
2023-05-18T08:36:18.064Z,89.00
2023-05-18T08:38:46.177Z,89.30
2023-05-18T08:41:22.598Z,89.30
2023-05-18T08:44:03.077Z,89.30
2023-05-18T08:46:35.690Z,89.50
2023-05-18T08:49:06.429Z,89.00
2023-05-18T08:51:37.077Z,89.20
2023-05-18T08:54:06.267Z,89.20
2023-05-18T08:56:37.137Z,89.40
2023-05-18T08:59:07.961Z,89.00
2023-05-18T09:01:37.057Z,89.10
2023-05-18T09:04:06.722Z,89.20
2023-05-18T09:06:35.853Z,89.50
2023-05-18T09:09:06.501Z,89.30
2023-05-18T09:11:36.397Z,89.60
2023-05-18T09:14:04.561Z,89.60
2023-05-18T09:16:33.264Z,89.70
2023-05-18T09:19:01.816Z,90.00
2023-05-18T09:21:32.240Z,89.90
2023-05-18T09:24:01.033Z,90.00
2023-05-18T09:26:29.369Z,90.00
2023-05-18T09:28:59.538Z,89.80
2023-05-18T09:31:28.004Z,89.90
2023-05-18T09:33:59.523Z,90.10
2023-05-18T09:36:29.196Z,90.10
2023-05-18T09:38:58.558Z,89.70
2023-05-18T09:41:28.171Z,89.80
2023-05-18T09:43:57.796Z,90.00
2023-05-18T09:46:26.067Z,90.00
2023-05-18T09:48:55.854Z,90.10
2023-05-18T09:51:25.404Z,90.00
2023-05-18T09:53:56.233Z,89.50
2023-05-18T09:56:25.493Z,89.20
2023-05-18T09:58:53.788Z,89.00
2023-05-18T10:01:23.470Z,88.90
2023-05-18T10:03:53.266Z,88.90
2023-05-18T10:06:27.432Z,89.30
2023-05-18T10:08:58.470Z,89.20
2023-05-18T10:11:27.658Z,88.80
2023-05-18T10:13:56.926Z,88.50
2023-05-18T10:16:26.858Z,88.50
2023-05-18T10:18:56.471Z,88.30
2023-05-18T10:21:29.357Z,88.50
2023-05-18T10:23:58.888Z,88.60
2023-05-18T10:26:29.738Z,88.80
2023-05-18T10:28:59.648Z,88.80
2023-05-18T10:31:32.200Z,88.60
2023-05-18T10:34:01.484Z,88.20
2023-05-18T10:36:32.726Z,88.10
2023-05-18T10:39:01.868Z,88.30
2023-05-18T10:41:32.479Z,88.70
2023-05-18T10:44:04.077Z,88.30
2023-05-18T10:46:34.797Z,88.10
2023-05-18T10:49:05.628Z,87.90
2023-05-18T10:51:35.213Z,87.70
2023-05-18T10:54:12.237Z,88.20
2023-05-18T10:56:43.913Z,87.30
2023-05-18T10:59:13.367Z,87.70
2023-05-18T11:01:43.821Z,87.30
2023-05-18T11:04:12.113Z,87.20
2023-05-18T11:06:41.416Z,87.10
2023-05-18T11:09:09.707Z,86.90
2023-05-18T11:11:53.236Z,87.10
2023-05-18T11:14:27.600Z,87.90
2023-05-18T11:17:17.376Z,88.20
2023-05-18T11:20:17.145Z,87.80
2023-05-18T11:22:51.362Z,87.70
2023-05-18T11:25:39.458Z,87.40
2023-05-18T11:28:10.179Z,87.50
2023-05-18T11:30:51.964Z,87.40
2023-05-18T11:33:27.750Z,87.20
2023-05-18T11:36:01.536Z,87.10
2023-05-18T11:38:48.358Z,87.20
2023-05-18T11:41:30.154Z,86.80
2023-05-18T11:44:15.994Z,87.20
2023-05-18T11:46:55.388Z,86.30
2023-05-18T11:49:26.335Z,86.30
2023-05-18T11:52:06.121Z,86.20
2023-05-18T11:54:42.047Z,86.40
2023-05-18T11:57:11.330Z,86.00
2023-05-18T11:59:41.790Z,86.10
2023-05-18T12:02:12.431Z,85.90
2023-05-18T12:04:50.567Z,85.50
2023-05-18T12:07:20.039Z,85.40
2023-05-18T12:09:48.929Z,86.20
2023-05-18T12:12:20.242Z,86.00
2023-05-18T12:14:55.469Z,85.40
2023-05-18T12:17:24.427Z,85.30
2023-05-18T12:19:53.952Z,85.20
2023-05-18T12:22:22.077Z,86.60
2023-05-18T12:24:53.534Z,85.10
2023-05-18T12:27:22.959Z,84.90
2023-05-18T12:29:51.215Z,84.60
2023-05-18T12:32:20.282Z,84.50
2023-05-18T12:34:48.444Z,85.00
2023-05-18T12:37:17.926Z,84.40
2023-05-18T12:39:46.365Z,84.10
2023-05-18T12:42:16.120Z,84.50
2023-05-18T12:44:45.859Z,84.70
2023-05-18T12:47:14.938Z,85.00
2023-05-18T12:49:44.893Z,84.80
2023-05-18T12:52:13.953Z,84.70
2023-05-18T12:54:59.873Z,84.70
2023-05-18T12:57:30.524Z,85.00
2023-05-18T12:59:59.139Z,84.60
2023-05-18T13:02:32.026Z,84.70
2023-05-18T13:05:08.730Z,84.30
2023-05-18T13:07:38.240Z,84.00
2023-05-18T13:10:09.708Z,83.70
2023-05-18T13:12:43.344Z,83.80
2023-05-18T13:15:13.091Z,84.70
2023-05-18T13:17:50.014Z,84.40
2023-05-18T13:20:18.565Z,84.10
2023-05-18T13:22:46.664Z,84.20
2023-05-18T13:25:16.257Z,84.40
2023-05-18T13:27:45.825Z,84.20
2023-05-18T13:30:16.561Z,84.50
2023-05-18T13:32:46.128Z,84.50
2023-05-18T13:35:14.908Z,85.00
2023-05-18T13:37:43.917Z,84.50
2023-05-18T13:40:13.501Z,84.30
2023-05-18T13:42:43.349Z,84.30
2023-05-18T13:45:13.855Z,84.40
2023-05-18T13:47:45.800Z,84.30
2023-05-18T13:50:14.431Z,84.60
2023-05-18T13:52:42.578Z,84.30
2023-05-18T13:55:12.479Z,84.60
2023-05-18T13:57:42.097Z,84.60
2023-05-18T14:00:13.264Z,84.60
2023-05-18T14:02:41.829Z,84.50
2023-05-18T14:05:11.048Z,84.40
2023-05-18T14:07:40.627Z,84.80
2023-05-18T14:10:10.969Z,84.30
2023-05-18T14:12:42.218Z,84.30
2023-05-18T14:15:13.796Z,84.00
2023-05-18T14:17:42.753Z,83.70
2023-05-18T14:20:11.910Z,84.20
2023-05-18T14:22:40.789Z,83.70
2023-05-18T14:25:09.500Z,84.30
2023-05-18T14:27:37.819Z,84.30
2023-05-18T14:30:07.123Z,84.00
2023-05-18T14:32:36.805Z,84.00
2023-05-18T14:35:05.581Z,84.10
2023-05-18T14:37:33.903Z,84.00
2023-05-18T14:40:02.041Z,83.80
2023-05-18T14:42:30.160Z,83.70
2023-05-18T14:44:58.238Z,83.90
2023-05-18T14:47:26.372Z,84.00
2023-05-18T14:49:55.823Z,83.80
2023-05-18T14:52:24.149Z,83.90
2023-05-18T14:54:52.210Z,83.90
2023-05-18T14:57:20.693Z,84.00
2023-05-18T14:59:48.788Z,84.20
2023-05-18T15:02:17.158Z,84.60
2023-05-18T15:04:46.069Z,84.80
2023-05-18T15:07:15.513Z,84.70
2023-05-18T15:09:43.604Z,84.60
2023-05-18T15:12:12.001Z,84.60
2023-05-18T15:14:40.071Z,84.40
2023-05-18T15:17:08.592Z,84.30
2023-05-18T15:19:37.145Z,84.30
2023-05-18T15:22:05.804Z,84.80
2023-05-18T15:24:35.276Z,84.70
2023-05-18T15:27:04.249Z,84.60
2023-05-18T15:29:32.352Z,84.40
2023-05-18T15:32:00.516Z,84.30
2023-05-18T15:34:28.655Z,84.30
2023-05-18T15:36:56.760Z,84.20
2023-05-18T15:39:24.852Z,83.80
2023-05-18T15:41:54.329Z,84.00
2023-05-18T15:44:22.422Z,84.10
2023-05-18T15:46:51.616Z,83.70
2023-05-18T15:49:21.152Z,83.90
2023-05-18T15:51:49.290Z,84.10
2023-05-18T15:54:17.382Z,84.10
2023-05-18T15:56:45.516Z,84.50
2023-05-18T15:59:14.994Z,84.50
2023-05-18T16:01:43.147Z,84.90
2023-05-18T16:04:11.322Z,85.00
2023-05-18T16:06:39.456Z,85.10
2023-05-18T16:09:07.585Z,85.00
2023-05-18T16:11:36.604Z,84.70
2023-05-18T16:14:05.063Z,84.70
2023-05-18T16:16:34.600Z,84.60
2023-05-18T16:19:03.252Z,85.00
2023-05-18T16:21:31.707Z,85.70
2023-05-18T16:24:00.174Z,85.10
2023-05-18T16:26:28.304Z,85.10
2023-05-18T16:28:56.568Z,85.30
2023-05-18T16:31:24.791Z,85.20
2023-05-18T16:33:54.273Z,85.00
2023-05-18T16:36:24.151Z,85.00
2023-05-18T16:38:52.297Z,85.10
2023-05-18T16:41:21.976Z,85.10
2023-05-18T16:43:50.194Z,85.20
2023-05-18T16:46:19.909Z,85.20
2023-05-18T16:48:48.171Z,85.30
2023-05-18T16:51:17.594Z,85.40
2023-05-18T16:53:45.795Z,85.30
2023-05-18T16:56:14.251Z,85.20
2023-05-18T16:58:42.392Z,85.30
2023-05-18T17:01:23.420Z,85.30
2023-05-18T17:03:55.298Z,85.40
2023-05-18T17:06:25.015Z,85.40
2023-05-18T17:08:59.348Z,85.60
2023-05-18T17:11:28.142Z,85.70
2023-05-18T17:13:57.502Z,85.70
2023-05-18T17:16:26.733Z,85.80
2023-05-18T17:18:56.040Z,85.80
2023-05-18T17:21:28.222Z,86.00
2023-05-18T17:23:56.622Z,86.00
2023-05-18T17:26:30.259Z,85.90
2023-05-18T17:28:58.469Z,85.90
2023-05-18T17:31:26.978Z,86.10
2023-05-18T17:33:55.301Z,86.10
2023-05-18T17:36:25.593Z,86.20
2023-05-18T17:38:53.664Z,85.90
2023-05-18T17:41:22.387Z,85.90
2023-05-18T17:43:50.543Z,85.30
2023-05-18T17:46:18.821Z,85.50
2023-05-18T17:48:47.514Z,85.50
2023-05-18T17:51:15.639Z,85.40
2023-05-18T17:53:45.673Z,85.40
2023-05-18T17:56:13.803Z,85.40
2023-05-18T17:58:42.982Z,85.10
2023-05-18T18:01:12.155Z,85.10
2023-05-18T18:03:41.647Z,85.00
2023-05-18T18:06:09.951Z,85.00
2023-05-18T18:08:38.137Z,85.20
2023-05-18T18:11:09.465Z,84.80
2023-05-18T18:13:38.059Z,85.10
2023-05-18T18:16:06.946Z,85.00
2023-05-18T18:18:36.626Z,85.00
2023-05-18T18:21:05.485Z,84.90
2023-05-18T18:23:33.757Z,84.80
2023-05-18T18:26:02.283Z,84.70
2023-05-18T18:28:31.950Z,84.30
2023-05-18T18:31:00.280Z,84.40
2023-05-18T18:33:28.656Z,84.50
2023-05-18T18:35:58.098Z,84.10
2023-05-18T18:38:28.726Z,84.10
2023-05-18T18:41:01.355Z,84.30
2023-05-18T18:43:31.162Z,84.70
2023-05-18T18:45:59.620Z,84.60
2023-05-18T18:48:28.154Z,84.50
2023-05-18T18:50:56.775Z,84.50
2023-05-18T18:53:24.982Z,84.30
2023-05-18T18:55:53.333Z,84.30
2023-05-18T18:58:24.199Z,84.30
2023-05-18T19:00:54.013Z,84.70
2023-05-18T19:03:22.547Z,84.90
2023-05-18T19:05:51.458Z,84.60
2023-05-18T19:08:19.653Z,84.60
2023-05-18T19:10:47.835Z,84.50
2023-05-18T19:13:16.095Z,84.30
2023-05-18T19:15:44.613Z,84.50
2023-05-18T19:18:14.824Z,84.40
2023-05-18T19:20:43.012Z,84.60
2023-05-18T19:23:11.388Z,84.60
2023-05-18T19:25:39.612Z,84.30
2023-05-18T19:28:07.770Z,84.30
2023-05-18T19:30:36.089Z,84.00
2023-05-18T19:33:04.868Z,84.10
2023-05-18T19:35:34.564Z,84.50
2023-05-18T19:38:03.221Z,84.60
2023-05-18T19:40:31.408Z,84.90
2023-05-18T19:42:59.876Z,84.60
2023-05-18T19:45:28.619Z,83.90
2023-05-18T19:47:58.008Z,84.80
2023-05-18T19:50:26.360Z,84.00
2023-05-18T19:52:55.843Z,84.30
2023-05-18T19:55:23.954Z,84.20
2023-05-18T19:57:52.087Z,83.90
2023-05-18T20:00:20.327Z,84.10
2023-05-18T20:02:48.535Z,84.30
2023-05-18T20:05:18.741Z,84.60
2023-05-18T20:07:47.267Z,83.90
2023-05-18T20:10:18.414Z,84.00
2023-05-18T20:12:46.596Z,83.60
2023-05-18T20:15:14.753Z,83.70
2023-05-18T20:17:43.249Z,83.80
2023-05-18T20:20:12.271Z,83.70
2023-05-18T20:22:40.896Z,83.80
2023-05-18T20:25:09.675Z,84.00
2023-05-18T20:27:39.240Z,83.80
2023-05-18T20:30:08.599Z,83.60
2023-05-18T20:32:36.852Z,84.40
2023-05-18T20:35:05.628Z,83.70
2023-05-18T20:37:34.975Z,83.70
2023-05-18T20:40:08.835Z,83.40
2023-05-18T20:42:40.560Z,83.50
2023-05-18T20:45:12.299Z,83.40
2023-05-18T20:47:41.855Z,83.50
2023-05-18T20:50:10.951Z,83.50
2023-05-18T20:52:39.095Z,83.90
2023-05-18T20:55:09.099Z,83.70
2023-05-18T20:57:38.359Z,83.70
2023-05-18T21:00:10.354Z,83.80
2023-05-18T21:02:38.800Z,84.00
2023-05-18T21:05:07.443Z,83.50
2023-05-18T21:07:37.809Z,84.20
2023-05-18T21:10:07.056Z,83.70
2023-05-18T21:12:35.234Z,83.80
2023-05-18T21:15:04.074Z,84.00
2023-05-18T21:17:34.463Z,83.90
2023-05-18T21:20:03.614Z,84.30
2023-05-18T21:22:31.840Z,84.50
2023-05-18T21:24:59.961Z,84.60
2023-05-18T21:27:28.544Z,84.50
2023-05-18T21:29:56.714Z,84.70
2023-05-18T21:32:24.955Z,84.70
2023-05-18T21:34:54.560Z,84.50
2023-05-18T21:37:22.852Z,85.10
2023-05-18T21:39:50.988Z,84.80
2023-05-18T21:42:19.279Z,84.90
2023-05-18T21:44:47.504Z,84.80
2023-05-18T21:47:15.688Z,84.90
2023-05-18T21:49:44.208Z,85.30
2023-05-18T21:52:15.402Z,85.20
2023-05-18T21:54:43.740Z,85.50
2023-05-18T21:57:11.983Z,85.40
2023-05-18T21:59:40.096Z,85.70
2023-05-18T22:02:08.248Z,85.60
2023-05-18T22:04:36.511Z,85.40
2023-05-18T22:07:04.830Z,85.90
2023-05-18T22:09:34.935Z,86.20
2023-05-18T22:12:03.215Z,86.70
2023-05-18T22:14:31.442Z,87.40
2023-05-18T22:16:59.597Z,87.40
2023-05-18T22:19:27.863Z,87.40
2023-05-18T22:21:56.012Z,87.20
2023-05-18T22:24:24.137Z,87.20
2023-05-18T22:26:53.617Z,87.10
2023-05-18T22:29:21.763Z,87.00
2023-05-18T22:31:50.025Z,86.70
2023-05-18T22:34:18.139Z,86.90
2023-05-18T22:36:46.275Z,87.00
2023-05-18T22:39:17.111Z,87.10
2023-05-18T22:41:45.245Z,87.00
2023-05-18T22:44:14.730Z,87.00
2023-05-18T22:46:43.002Z,87.60
2023-05-18T22:49:12.133Z,87.50
2023-05-18T22:51:40.794Z,87.60
2023-05-18T22:54:09.065Z,88.20
2023-05-18T22:56:37.206Z,87.90
2023-05-18T22:59:07.025Z,88.00
2023-05-18T23:01:37.718Z,88.20
2023-05-18T23:04:06.374Z,88.20
2023-05-18T23:06:34.620Z,88.20
2023-05-18T23:09:02.796Z,87.90
2023-05-18T23:11:31.029Z,88.20
2023-05-18T23:14:02.577Z,88.00
2023-05-18T23:16:31.148Z,87.80
2023-05-18T23:19:01.686Z,87.80
2023-05-18T23:21:31.006Z,87.70
2023-05-18T23:23:59.787Z,87.70
2023-05-18T23:26:28.048Z,87.80
2023-05-18T23:28:56.176Z,87.90
2023-05-18T23:31:24.329Z,87.40
2023-05-18T23:33:53.055Z,87.40
2023-05-18T23:36:27.101Z,87.30
2023-05-18T23:38:58.974Z,86.90
2023-05-18T23:41:27.958Z,86.70
2023-05-18T23:43:57.347Z,87.50
2023-05-18T23:46:25.746Z,87.60
2023-05-18T23:48:54.828Z,87.40
2023-05-18T23:51:27.660Z,87.10
2023-05-18T23:53:56.500Z,87.20
2023-05-18T23:56:25.176Z,87.10
2023-05-18T23:58:53.810Z,87.10
